createdAt,value
2022-09-22T00:01:06.151Z,15.45
2022-09-22T00:03:33.825Z,15.45
2022-09-22T00:06:02.675Z,15.42
2022-09-22T00:08:32.277Z,15.39
2022-09-22T00:11:05.391Z,15.38
2022-09-22T00:13:33.212Z,15.35
2022-09-22T00:16:00.955Z,15.32
2022-09-22T00:18:28.256Z,15.29
2022-09-22T00:20:55.039Z,15.26
2022-09-22T00:23:26.236Z,15.23
2022-09-22T00:25:52.591Z,15.22
2022-09-22T00:28:20.146Z,15.19
2022-09-22T00:30:47.057Z,15.16
2022-09-22T00:33:13.340Z,15.14
2022-09-22T00:35:39.637Z,15.11
2022-09-22T00:38:06.126Z,15.09
2022-09-22T00:40:34.113Z,15.06
2022-09-22T00:43:22.117Z,15.02
2022-09-22T00:45:54.434Z,15.04
2022-09-22T00:48:23.359Z,15.02
2022-09-22T00:50:53.657Z,15.01
2022-09-22T00:53:22.799Z,14.99
2022-09-22T00:55:55.353Z,14.98
2022-09-22T00:58:30.656Z,14.95
2022-09-22T01:00:57.146Z,14.96
2022-09-22T01:03:29.809Z,14.94
2022-09-22T01:06:02.875Z,14.89
2022-09-22T01:08:31.283Z,14.90
2022-09-22T01:10:59.460Z,14.89
2022-09-22T01:13:39.624Z,14.86
2022-09-22T01:16:27.827Z,14.83
2022-09-22T01:19:00.384Z,14.82
2022-09-22T01:22:04.569Z,14.79
2022-09-22T01:24:55.830Z,14.77
2022-09-22T01:27:52.933Z,14.75
2022-09-22T01:30:23.732Z,14.74
2022-09-22T01:33:09.762Z,14.72
2022-09-22T01:36:03.961Z,14.70
2022-09-22T01:38:42.370Z,14.69
2022-09-22T01:41:21.431Z,14.68
2022-09-22T01:44:03.129Z,14.65
2022-09-22T01:46:34.285Z,14.64
2022-09-22T01:49:06.287Z,14.62
2022-09-22T01:51:48.845Z,14.59
2022-09-22T01:54:21.069Z,14.59
2022-09-22T01:56:55.734Z,14.56
2022-09-22T01:59:27.751Z,14.54
2022-09-22T02:02:00.461Z,14.52
2022-09-22T02:04:46.786Z,14.51
2022-09-22T02:07:20.806Z,14.47
2022-09-22T02:09:49.991Z,14.45
2022-09-22T02:12:18.328Z,14.42
2022-09-22T02:14:46.785Z,14.40
2022-09-22T02:17:14.981Z,14.39
2022-09-22T02:19:42.353Z,14.38
2022-09-22T02:22:10.780Z,14.37
2022-09-22T02:24:43.022Z,14.35
2022-09-22T02:27:26.267Z,14.31
2022-09-22T02:30:08.045Z,14.29
2022-09-22T02:32:37.418Z,14.31
2022-09-22T02:35:04.449Z,14.28
2022-09-22T02:37:45.219Z,14.24
2022-09-22T02:40:30.462Z,14.23
2022-09-22T02:43:07.451Z,14.20
2022-09-22T02:45:50.819Z,14.14
2022-09-22T02:48:25.454Z,14.13
2022-09-22T02:50:53.239Z,14.12
2022-09-22T02:53:19.583Z,14.12
2022-09-22T02:55:47.049Z,14.10
2022-09-22T02:58:15.920Z,14.08
2022-09-22T03:00:43.028Z,14.07
2022-09-22T03:03:11.454Z,14.05
2022-09-22T03:05:38.303Z,14.04
2022-09-22T03:08:05.022Z,14.03
2022-09-22T03:10:31.613Z,14.02
2022-09-22T03:13:15.631Z,14.01
2022-09-22T03:15:43.578Z,13.99
2022-09-22T03:18:09.961Z,13.98
2022-09-22T03:20:37.381Z,13.98
2022-09-22T03:23:03.685Z,13.96
2022-09-22T03:25:29.978Z,13.95
2022-09-22T03:27:56.320Z,13.94
2022-09-22T03:30:22.616Z,13.93
2022-09-22T03:32:48.905Z,13.92
2022-09-22T03:35:15.499Z,13.90
2022-09-22T03:37:41.793Z,13.90
2022-09-22T03:40:08.255Z,13.91
2022-09-22T03:42:35.491Z,13.89
2022-09-22T03:45:04.174Z,13.89
2022-09-22T03:47:31.016Z,13.89
2022-09-22T03:49:57.353Z,13.88
2022-09-22T03:52:24.045Z,13.87
2022-09-22T03:54:52.037Z,13.84
2022-09-22T03:57:18.328Z,13.82
2022-09-22T03:59:44.612Z,13.80
2022-09-22T04:02:11.354Z,13.80
2022-09-22T04:04:37.769Z,13.78
2022-09-22T04:07:07.366Z,13.78
2022-09-22T04:09:34.878Z,13.76
2022-09-22T04:12:01.576Z,13.75
2022-09-22T04:14:27.977Z,13.73
2022-09-22T04:16:54.403Z,13.72
2022-09-22T04:19:20.835Z,13.69
2022-09-22T04:21:47.134Z,13.69
2022-09-22T04:24:13.569Z,13.68
2022-09-22T04:26:47.720Z,13.64
2022-09-22T04:29:26.302Z,13.63
2022-09-22T04:31:52.598Z,13.61
2022-09-22T04:34:18.993Z,13.60
2022-09-22T04:36:45.843Z,13.57
2022-09-22T04:39:12.233Z,13.56
2022-09-22T04:41:38.706Z,13.54
2022-09-22T04:44:05.028Z,13.55
2022-09-22T04:46:31.347Z,13.53
2022-09-22T04:48:57.780Z,13.53
2022-09-22T04:51:24.080Z,13.52
2022-09-22T04:53:50.404Z,13.51
2022-09-22T04:56:17.306Z,13.50
2022-09-22T04:58:43.597Z,13.51
2022-09-22T05:01:09.950Z,13.50
2022-09-22T05:03:38.178Z,13.50
2022-09-22T05:06:06.327Z,13.49
2022-09-22T05:08:32.718Z,13.50
2022-09-22T05:10:59.692Z,13.49
2022-09-22T05:13:25.988Z,13.49
2022-09-22T05:15:52.568Z,13.49
2022-09-22T05:18:18.882Z,13.48
2022-09-22T05:20:45.735Z,13.48
2022-09-22T05:23:12.019Z,13.46
2022-09-22T05:25:39.072Z,13.45
2022-09-22T05:28:05.364Z,13.46
2022-09-22T05:30:31.707Z,13.45
2022-09-22T05:32:57.991Z,13.45
2022-09-22T05:35:25.556Z,13.46
2022-09-22T05:37:53.400Z,13.47
2022-09-22T05:40:20.510Z,13.48
2022-09-22T05:42:49.027Z,13.46
2022-09-22T05:45:16.550Z,13.46
2022-09-22T05:47:43.050Z,13.45
2022-09-22T05:50:11.394Z,13.43
2022-09-22T05:52:37.783Z,13.44
2022-09-22T05:55:04.961Z,13.44
2022-09-22T05:57:31.991Z,13.47
2022-09-22T05:59:58.645Z,13.50
2022-09-22T06:02:26.729Z,13.53
2022-09-22T06:04:54.007Z,13.58
2022-09-22T06:07:21.362Z,13.61
2022-09-22T06:09:48.332Z,13.66
2022-09-22T06:12:15.145Z,13.71
2022-09-22T06:14:41.475Z,13.76
2022-09-22T06:17:11.693Z,13.80
2022-09-22T06:19:39.291Z,13.85
2022-09-22T06:22:05.867Z,13.89
2022-09-22T06:24:32.479Z,13.94
2022-09-22T06:26:58.796Z,13.98
2022-09-22T06:29:25.871Z,14.01
2022-09-22T06:31:52.289Z,14.06
2022-09-22T06:34:18.829Z,14.09
2022-09-22T06:36:48.072Z,14.14
2022-09-22T06:39:14.804Z,14.19
2022-09-22T06:41:41.133Z,14.25
2022-09-22T06:44:08.888Z,14.32
2022-09-22T06:46:35.252Z,14.37
2022-09-22T06:49:02.460Z,14.46
2022-09-22T06:51:32.805Z,14.51
2022-09-22T06:54:01.836Z,14.61
2022-09-22T06:56:28.436Z,14.68
2022-09-22T06:59:09.758Z,14.73
2022-09-22T07:01:37.314Z,14.84
2022-09-22T07:04:04.496Z,14.91
2022-09-22T07:06:30.863Z,14.99
2022-09-22T07:08:57.198Z,15.08
2022-09-22T07:11:23.682Z,15.17
2022-09-22T07:13:53.203Z,15.25
2022-09-22T07:16:22.000Z,15.35
2022-09-22T07:18:50.492Z,15.45
2022-09-22T07:21:22.674Z,15.54
2022-09-22T07:23:49.888Z,15.64
2022-09-22T07:26:19.738Z,15.77
2022-09-22T07:28:50.287Z,15.98
2022-09-22T07:31:17.441Z,16.29
2022-09-22T07:33:45.068Z,16.70
2022-09-22T07:36:13.891Z,17.15
2022-09-22T07:38:42.107Z,17.66
2022-09-22T07:41:12.115Z,18.18
2022-09-22T07:43:40.253Z,18.69
2022-09-22T07:46:07.428Z,19.19
2022-09-22T07:48:36.312Z,19.66
2022-09-22T07:51:04.270Z,20.11
2022-09-22T07:53:31.582Z,20.47
2022-09-22T07:56:27.666Z,20.77
2022-09-22T07:58:54.556Z,21.00
2022-09-22T08:01:23.255Z,21.10
2022-09-22T08:03:50.760Z,21.15
2022-09-22T08:06:19.919Z,21.15
2022-09-22T08:08:52.247Z,21.14
2022-09-22T08:11:20.812Z,21.08
2022-09-22T08:13:57.211Z,21.03
2022-09-22T08:16:28.749Z,20.99
2022-09-22T08:18:56.731Z,20.91
2022-09-22T08:21:24.740Z,20.84
2022-09-22T08:23:52.112Z,20.76
2022-09-22T08:26:20.088Z,20.69
2022-09-22T08:28:50.480Z,20.63
2022-09-22T08:31:19.995Z,20.58
2022-09-22T08:33:49.111Z,20.52
2022-09-22T08:36:16.522Z,20.50
2022-09-22T08:38:43.559Z,20.48
2022-09-22T08:41:15.667Z,20.44
2022-09-22T08:43:55.334Z,20.46
2022-09-22T08:46:30.914Z,20.47
2022-09-22T08:49:32.760Z,20.50
2022-09-22T08:52:26.892Z,20.54
2022-09-22T08:54:59.677Z,20.61
2022-09-22T08:57:56.150Z,20.63
2022-09-22T09:00:24.217Z,20.72
2022-09-22T09:03:05.849Z,20.76
2022-09-22T09:05:48.685Z,20.78
2022-09-22T09:08:39.201Z,20.85
2022-09-22T09:11:42.548Z,20.91
2022-09-22T09:14:41.055Z,20.99
2022-09-22T09:17:19.265Z,21.09
2022-09-22T09:19:53.238Z,21.16
2022-09-22T09:22:25.208Z,21.23
2022-09-22T09:27:46.906Z,21.39
2022-09-22T09:30:21.575Z,21.47
2022-09-22T09:32:52.680Z,21.54
2022-09-22T09:35:26.651Z,21.63
2022-09-22T09:37:58.933Z,21.69
2022-09-22T09:40:25.503Z,21.79
2022-09-22T09:43:05.419Z,21.82
2022-09-22T09:46:11.634Z,21.91
2022-09-22T09:49:05.726Z,22.00
2022-09-22T09:51:41.130Z,22.08
2022-09-22T09:54:14.442Z,22.15
2022-09-22T09:57:27.496Z,22.17
2022-09-22T10:00:34.263Z,22.23
2022-09-22T10:03:13.556Z,22.31
2022-09-22T10:05:40.007Z,22.34
2022-09-22T10:08:20.713Z,22.35
2022-09-22T10:10:47.895Z,22.44
2022-09-22T10:13:17.446Z,22.50
2022-09-22T10:16:01.401Z,22.53
2022-09-22T10:18:40.120Z,22.62
2022-09-22T10:21:15.623Z,22.70
2022-09-22T10:23:53.253Z,22.78
2022-09-22T10:26:26.162Z,22.86
2022-09-22T10:29:20.938Z,22.93
2022-09-22T10:32:06.222Z,23.02
2022-09-22T10:34:34.466Z,23.13
2022-09-22T10:37:03.240Z,23.21
2022-09-22T10:39:39.859Z,23.24
2022-09-22T10:42:14.892Z,23.32
2022-09-22T10:44:45.212Z,23.37
2022-09-22T10:47:24.787Z,23.39
2022-09-22T10:50:16.021Z,23.45
2022-09-22T10:52:56.081Z,23.47
2022-09-22T10:55:37.212Z,23.44
2022-09-22T10:58:09.594Z,23.45
2022-09-22T11:00:39.425Z,23.45
2022-09-22T11:03:15.176Z,23.42
2022-09-22T11:06:21.657Z,23.41
2022-09-22T11:09:36.297Z,23.38
2022-09-22T11:12:17.585Z,23.42
2022-09-22T11:15:21.407Z,23.37
2022-09-22T11:17:58.570Z,23.37
2022-09-22T11:20:36.224Z,23.38
2022-09-22T11:23:24.641Z,23.41
2022-09-22T11:26:11.884Z,23.48
2022-09-22T11:29:00.233Z,23.56
2022-09-22T11:31:42.264Z,23.66
2022-09-22T11:34:35.751Z,23.70
2022-09-22T11:37:26.688Z,23.73
2022-09-22T11:39:55.928Z,23.78
2022-09-22T11:42:53.030Z,23.75
2022-09-22T11:45:25.745Z,23.80
2022-09-22T11:48:07.178Z,23.85
2022-09-22T11:50:43.296Z,23.89
2022-09-22T11:53:33.497Z,23.95
2022-09-22T11:56:31.315Z,24.00
2022-09-22T11:59:02.425Z,24.11
2022-09-22T12:01:35.722Z,24.17
2022-09-22T12:04:16.859Z,24.20
2022-09-22T12:06:46.027Z,24.30
2022-09-22T12:09:36.781Z,24.34
2022-09-22T12:12:04.888Z,24.46
2022-09-22T12:14:32.060Z,24.56
2022-09-22T12:17:12.451Z,24.65
2022-09-22T12:20:28.292Z,24.75
2022-09-22T12:23:13.634Z,24.90
2022-09-22T12:25:55.312Z,25.00
2022-09-22T12:28:28.069Z,25.10
2022-09-22T12:30:57.526Z,25.18
2022-09-22T12:33:25.253Z,25.23
2022-09-22T12:35:54.382Z,25.29
2022-09-22T12:38:22.735Z,25.31
2022-09-22T12:40:51.243Z,25.31
2022-09-22T12:43:20.252Z,25.32
2022-09-22T12:45:48.299Z,25.33
2022-09-22T12:48:22.440Z,25.24
2022-09-22T12:50:49.753Z,25.19
2022-09-22T12:53:21.871Z,25.09
2022-09-22T12:55:55.985Z,25.04
2022-09-22T12:58:22.326Z,25.03
2022-09-22T13:00:53.334Z,25.00
2022-09-22T13:03:25.649Z,24.94
2022-09-22T13:05:54.483Z,24.94
2022-09-22T13:08:44.990Z,24.88
2022-09-22T13:11:11.712Z,24.88
2022-09-22T13:13:46.684Z,24.83
2022-09-22T13:16:16.074Z,24.81
2022-09-22T13:18:58.782Z,24.80
2022-09-22T13:21:27.322Z,24.83
2022-09-22T13:23:53.539Z,24.88
2022-09-22T13:26:33.353Z,24.95
2022-09-22T13:29:13.415Z,24.98
2022-09-22T13:31:42.930Z,25.00
2022-09-22T13:34:28.989Z,24.99
2022-09-22T13:37:19.460Z,25.03
2022-09-22T13:39:53.915Z,25.10
2022-09-22T13:42:32.176Z,25.18
2022-09-22T13:45:03.564Z,25.24
2022-09-22T13:47:30.529Z,25.31
2022-09-22T13:50:04.485Z,25.36
2022-09-22T13:52:34.926Z,25.41
2022-09-22T13:55:12.940Z,25.43
2022-09-22T13:57:39.770Z,25.49
2022-09-22T14:00:09.631Z,25.49
2022-09-22T14:02:43.593Z,25.50
2022-09-22T14:05:18.682Z,25.49
2022-09-22T14:08:07.813Z,25.54
2022-09-22T14:10:33.310Z,25.57
2022-09-22T14:12:59.618Z,25.58
2022-09-22T14:15:34.728Z,25.58
2022-09-22T14:18:02.034Z,25.66
2022-09-22T14:20:28.466Z,25.69
2022-09-22T14:22:54.858Z,25.73
2022-09-22T14:25:22.969Z,25.75
2022-09-22T14:27:55.293Z,25.73
2022-09-22T14:30:31.066Z,25.74
2022-09-22T14:33:02.716Z,25.73
2022-09-22T14:35:36.218Z,25.69
2022-09-22T14:38:14.684Z,25.68
2022-09-22T14:40:52.485Z,25.61
2022-09-22T14:43:31.140Z,25.58
2022-09-22T14:46:07.342Z,25.56
2022-09-22T14:48:39.080Z,25.57
2022-09-22T14:51:12.733Z,25.52
2022-09-22T14:53:46.407Z,25.49
2022-09-22T14:56:22.893Z,25.46
2022-09-22T14:58:52.200Z,25.44
2022-09-22T15:01:45.310Z,25.41
2022-09-22T15:04:18.477Z,25.35
2022-09-22T15:06:46.678Z,25.34
2022-09-22T15:09:23.619Z,25.31
2022-09-22T15:11:53.079Z,25.30
2022-09-22T15:14:44.635Z,25.22
2022-09-22T15:18:19.476Z,25.21
2022-09-22T15:20:58.542Z,25.23
2022-09-22T15:23:46.840Z,25.17
2022-09-22T15:26:25.175Z,25.21
2022-09-22T15:28:53.587Z,25.22
2022-09-22T15:31:26.537Z,25.18
2022-09-22T15:33:56.906Z,25.15
2022-09-22T15:36:25.610Z,25.12
2022-09-22T15:38:59.678Z,25.06
2022-09-22T15:41:27.384Z,25.04
2022-09-22T15:43:53.898Z,25.01
2022-09-22T15:46:35.479Z,24.95
2022-09-22T15:49:10.025Z,24.94
2022-09-22T15:51:36.502Z,24.92
2022-09-22T15:54:02.954Z,24.87
2022-09-22T15:56:30.352Z,24.82
2022-09-22T15:59:00.974Z,24.80
2022-09-22T16:01:29.251Z,24.79
2022-09-22T16:03:55.845Z,24.76
2022-09-22T16:06:22.381Z,24.75
2022-09-22T16:08:51.678Z,24.72
2022-09-22T16:11:28.281Z,24.68
2022-09-22T16:13:58.801Z,24.68
2022-09-22T16:16:27.210Z,24.64
2022-09-22T16:18:53.678Z,24.61
2022-09-22T16:21:29.227Z,24.59
2022-09-22T16:24:01.699Z,24.53
2022-09-22T16:26:31.438Z,24.52
2022-09-22T16:28:58.801Z,24.47
2022-09-22T16:31:25.692Z,24.44
2022-09-22T16:33:56.120Z,24.41
2022-09-22T16:36:24.609Z,24.35
2022-09-22T16:38:50.889Z,24.32
2022-09-22T16:41:28.503Z,24.24
2022-09-22T16:43:56.340Z,24.22
2022-09-22T16:46:31.046Z,24.17
2022-09-22T16:49:08.051Z,24.08
2022-09-22T16:51:48.665Z,24.05
2022-09-22T16:54:15.928Z,23.98
2022-09-22T16:56:44.326Z,23.92
2022-09-22T16:59:13.128Z,23.85
2022-09-22T17:01:39.462Z,23.79
2022-09-22T17:04:07.484Z,23.72
2022-09-22T17:06:36.014Z,23.65
2022-09-22T17:09:02.693Z,23.59
2022-09-22T17:11:32.982Z,23.51
2022-09-22T17:14:02.794Z,23.42
2022-09-22T17:16:31.314Z,23.33
2022-09-22T17:18:59.699Z,23.27
2022-09-22T17:21:30.162Z,23.22
2022-09-22T17:24:01.977Z,23.12
2022-09-22T17:26:41.208Z,23.02
2022-09-22T17:29:08.370Z,22.93
2022-09-22T17:31:36.540Z,22.84
2022-09-22T17:34:03.579Z,22.75
2022-09-22T17:36:30.212Z,22.67
2022-09-22T17:38:58.741Z,22.57
2022-09-22T17:41:26.598Z,22.49
2022-09-22T17:43:57.507Z,22.46
2022-09-22T17:46:25.791Z,22.35
2022-09-22T17:49:11.018Z,22.24
2022-09-22T17:52:08.919Z,22.13
2022-09-22T17:55:00.336Z,22.02
2022-09-22T17:57:31.524Z,21.93
2022-09-22T17:59:58.880Z,21.86
2022-09-22T18:02:32.140Z,21.76
2022-09-22T18:04:58.870Z,21.69
2022-09-22T18:07:26.782Z,21.59
2022-09-22T18:09:55.343Z,21.52
2022-09-22T18:12:24.533Z,21.47
2022-09-22T18:14:52.988Z,21.44
2022-09-22T18:17:23.761Z,21.35
2022-09-22T18:19:56.263Z,21.25
2022-09-22T18:22:24.653Z,21.20
2022-09-22T18:24:54.463Z,21.12
2022-09-22T18:27:21.464Z,21.07
2022-09-22T18:29:53.369Z,20.99
2022-09-22T18:32:20.277Z,20.93
2022-09-22T18:34:47.869Z,20.88
2022-09-22T18:37:15.624Z,20.82
2022-09-22T18:39:44.585Z,20.77
2022-09-22T18:42:14.258Z,20.71
2022-09-22T18:44:41.402Z,20.64
2022-09-22T18:47:11.547Z,20.58
2022-09-22T18:49:40.476Z,20.53
2022-09-22T18:52:07.791Z,20.47
2022-09-22T18:54:35.245Z,20.43
2022-09-22T18:57:03.377Z,20.38
2022-09-22T18:59:29.885Z,20.33
2022-09-22T19:01:56.309Z,20.28
2022-09-22T19:04:24.778Z,20.23
2022-09-22T19:07:11.899Z,20.19
2022-09-22T19:09:38.422Z,20.13
2022-09-22T19:12:07.864Z,20.09
2022-09-22T19:14:38.157Z,20.02
2022-09-22T19:17:11.795Z,19.94
2022-09-22T19:19:42.389Z,19.91
2022-09-22T19:22:12.259Z,19.87
2022-09-22T19:24:40.072Z,19.81
2022-09-22T19:27:09.100Z,19.76
2022-09-22T19:29:35.792Z,19.73
2022-09-22T19:32:03.962Z,19.68
2022-09-22T19:34:30.856Z,19.65
2022-09-22T19:36:58.187Z,19.61
2022-09-22T19:39:24.652Z,19.56
2022-09-22T19:41:52.445Z,19.52
2022-09-22T19:44:20.746Z,19.49
2022-09-22T19:46:47.566Z,19.46
2022-09-22T19:49:15.221Z,19.41
2022-09-22T19:51:44.847Z,19.38
2022-09-22T19:54:11.635Z,19.33
2022-09-22T19:56:38.174Z,19.29
2022-09-22T19:59:07.093Z,19.24
2022-09-22T20:01:41.939Z,19.16
2022-09-22T20:04:22.310Z,19.13
2022-09-22T20:06:48.948Z,19.13
2022-09-22T20:09:16.177Z,19.07
2022-09-22T20:11:45.614Z,19.02
2022-09-22T20:14:22.342Z,18.99
2022-09-22T20:17:11.124Z,18.94
2022-09-22T20:19:38.311Z,18.89
2022-09-22T20:22:27.568Z,18.82
2022-09-22T20:24:57.297Z,18.79
2022-09-22T20:27:26.364Z,18.74
2022-09-22T20:29:57.003Z,18.71
2022-09-22T20:32:25.097Z,18.67
2022-09-22T20:34:52.435Z,18.62
2022-09-22T20:37:18.732Z,18.58
2022-09-22T20:39:45.273Z,18.55
2022-09-22T20:42:13.330Z,18.51
2022-09-22T20:44:43.395Z,18.47
2022-09-22T20:47:13.759Z,18.43
2022-09-22T20:49:41.748Z,18.42
2022-09-22T20:52:10.004Z,18.38
2022-09-22T20:54:36.781Z,18.36
2022-09-22T20:57:03.095Z,18.32
2022-09-22T20:59:29.372Z,18.28
2022-09-22T21:01:58.401Z,18.24
2022-09-22T21:04:24.755Z,18.20
2022-09-22T21:06:51.061Z,18.16
2022-09-22T21:09:35.901Z,18.13
2022-09-22T21:12:02.208Z,18.10
2022-09-22T21:14:29.081Z,18.08
2022-09-22T21:16:55.369Z,18.03
2022-09-22T21:19:21.733Z,18.01
2022-09-22T21:21:48.041Z,17.96
2022-09-22T21:24:14.656Z,17.93
2022-09-22T21:26:40.962Z,17.90
2022-09-22T21:29:09.307Z,17.87
2022-09-22T21:31:37.167Z,17.85
2022-09-22T21:34:03.912Z,17.83
2022-09-22T21:36:30.240Z,17.80
2022-09-22T21:38:59.017Z,17.77
2022-09-22T21:41:27.680Z,17.75
2022-09-22T21:43:54.236Z,17.75
2022-09-22T21:46:22.779Z,17.75
2022-09-22T21:48:49.118Z,17.72
2022-09-22T21:51:20.397Z,17.69
2022-09-22T21:53:48.603Z,17.65
2022-09-22T21:56:17.589Z,17.60
2022-09-22T21:58:46.262Z,17.56
2022-09-22T22:01:20.012Z,17.52
2022-09-22T22:03:47.986Z,17.50
2022-09-22T22:06:26.184Z,17.45
2022-09-22T22:09:03.973Z,17.43
2022-09-22T22:11:42.868Z,17.39
2022-09-22T22:14:12.470Z,17.37
2022-09-22T22:16:44.213Z,17.34
2022-09-22T22:19:14.304Z,17.31
2022-09-22T22:21:42.804Z,17.28
2022-09-22T22:24:17.455Z,17.24
2022-09-22T22:27:09.958Z,17.17
2022-09-22T22:29:38.631Z,17.17
2022-09-22T22:32:06.005Z,17.15
2022-09-22T22:34:32.485Z,17.16
2022-09-22T22:36:58.828Z,17.11
2022-09-22T22:39:25.558Z,17.07
2022-09-22T22:41:54.373Z,17.03
2022-09-22T22:44:20.816Z,17.01
2022-09-22T22:46:47.917Z,16.96
2022-09-22T22:49:14.245Z,16.95
2022-09-22T22:51:45.771Z,16.92
2022-09-22T22:54:14.235Z,16.89
2022-09-22T22:56:42.448Z,16.86
2022-09-22T22:59:10.976Z,16.85
2022-09-22T23:01:37.597Z,16.81
2022-09-22T23:04:06.490Z,16.77
2022-09-22T23:06:39.367Z,16.73
2022-09-22T23:09:08.276Z,16.70
2022-09-22T23:11:37.572Z,16.67
2022-09-22T23:14:06.246Z,16.65
2022-09-22T23:16:41.109Z,16.59
2022-09-22T23:19:10.231Z,16.59
2022-09-22T23:21:37.050Z,16.57
2022-09-22T23:24:04.965Z,16.55
2022-09-22T23:26:31.874Z,16.54
2022-09-22T23:28:58.697Z,16.53
2022-09-22T23:31:25.880Z,16.52
2022-09-22T23:33:54.067Z,16.49
2022-09-22T23:36:22.843Z,16.48
2022-09-22T23:38:54.348Z,16.45
2022-09-22T23:41:20.930Z,16.44
2022-09-22T23:43:47.249Z,16.42
2022-09-22T23:46:13.618Z,16.40
2022-09-22T23:48:40.132Z,16.37
2022-09-22T23:51:06.700Z,16.35
2022-09-22T23:53:35.601Z,16.34
2022-09-22T23:56:02.749Z,16.31
2022-09-22T23:58:30.324Z,16.30
